Time;durP1;ratioP1;P1;durP2;ratioP2;P2;SDS_P1;SDS_P2;PMS_P1;PMS_P2;Temp;Humidity;BMP_temperature;BMP_pressure;BME280_temperature;BME280_humidity;BME280_pressure;Samples;Min_cycle;Max_cycle;Signal;HPM_P1;HPM_P2
2021/09/20 00:02:22;;;;;;;2.63;1.90;;;;;;;10.86;68.99;100175.98;126295;1099;104160;-79
2021/09/20 00:04:52;;;;;;;3.20;1.90;;;;;;;10.83;69.40;100174.98;126350;1096;104255;-80
2021/09/20 00:07:23;;;;;;;2.37;1.90;;;;;;;10.78;69.04;100183.63;126298;1099;104237;-80
2021/09/20 00:09:54;;;;;;;3.37;2.20;;;;;;;10.76;69.19;100180.05;126297;1097;104353;-79
2021/09/20 00:12:24;;;;;;;3.93;2.30;;;;;;;10.75;69.21;100182.63;126301;1099;104182;-79
2021/09/20 00:14:55;;;;;;;2.23;1.80;;;;;;;10.75;69.09;100182.63;126344;1099;104159;-79
2021/09/20 00:17:26;;;;;;;3.27;2.00;;;;;;;10.73;69.21;100185.20;126334;1099;104149;-80
2021/09/20 00:19:56;;;;;;;3.63;2.07;;;;;;;10.70;69.32;100174.61;126339;1099;104137;-78
2021/09/20 00:22:27;;;;;;;3.30;2.27;;;;;;;10.68;69.20;100178.94;126334;1098;104152;-78
2021/09/20 00:24:58;;;;;;;3.13;2.50;;;;;;;10.67;69.53;100178.89;126345;1098;104137;-79
2021/09/20 00:27:28;;;;;;;4.57;2.30;;;;;;;10.65;69.69;100172.72;126261;1099;104171;-79
2021/09/20 00:29:59;;;;;;;2.33;2.00;;;;;;;10.63;69.60;100183.17;126331;1099;102853;-80
2021/09/20 00:32:30;;;;;;;2.70;2.10;;;;;;;10.60;69.27;100170.84;126353;1099;104216;-80
2021/09/20 00:35:01;;;;;;;2.90;2.10;;;;;;;10.59;69.21;100181.28;126302;1099;104309;-79
2021/09/20 00:37:32;;;;;;;5.30;2.23;;;;;;;10.56;69.46;100175.94;126277;1099;105501;-79
2021/09/20 00:40:04;;;;;;;5.75;2.40;;;;;;;10.54;69.36;100178.52;126330;1099;104667;-78
2021/09/20 00:42:35;;;;;;;2.93;2.30;;;;;;;10.53;68.98;100181.09;126347;1099;104188;-79
2021/09/20 00:45:07;;;;;;;4.17;2.30;;;;;;;10.48;69.07;100182.70;126335;1099;104238;-79
2021/09/20 00:47:38;;;;;;;5.20;2.40;;;;;;;10.44;69.42;100181.72;126290;1099;104818;-78
2021/09/20 00:50:10;;;;;;;3.13;2.37;;;;;;;10.42;69.51;100186.92;126336;1099;104219;-79
2021/09/20 00:52:41;;;;;;;4.40;2.53;;;;;;;10.42;69.34;100186.92;126333;1099;104200;-79
2021/09/20 00:55:14;;;;;;;3.07;2.50;;;;;;;10.41;69.44;100186.88;126347;1099;104216;-79
2021/09/20 00:57:46;;;;;;;4.40;2.43;;;;;;;10.40;69.11;100191.20;126304;1097;104172;-79
2021/09/20 01:00:18;;;;;;;4.60;2.40;;;;;;;10.40;69.16;100191.20;126344;1099;104162;-79
2021/09/20 01:02:49;;;;;;;3.03;2.53;;;;;;;10.39;69.37;100184.20;126377;1097;104185;-78
2021/09/20 01:05:20;;;;;;;3.07;2.43;;;;;;;10.38;69.38;100187.66;126282;1098;104262;-79
2021/09/20 01:07:51;;;;;;;6.20;2.60;;;;;;;10.38;69.50;100195.52;126290;1099;104245;-80
2021/09/20 01:10:22;;;;;;;4.03;2.50;;;;;;;10.39;69.99;100196.40;126299;1099;104223;-79
2021/09/20 01:12:53;;;;;;;3.20;2.60;;;;;;;10.38;69.45;100197.27;126307;1099;104220;-79
2021/09/20 01:15:23;;;;;;;5.60;2.90;;;;;;;10.37;69.39;100198.98;126331;1099;104201;-79
2021/09/20 01:17:54;;;;;;;4.77;2.60;;;;;;;10.37;69.55;100198.09;126278;1099;104169;-78
2021/09/20 01:20:28;;;;;;;6.73;2.60;;;;;;;10.34;69.85;100206.75;126350;1099;104168;-78
2021/09/20 01:22:59;;;;;;;;;;;;;;;10.31;69.41;100211.86;126339;1099;104137;-78
2021/09/20 01:25:31;;;;;;;5.57;2.37;;;;;;;10.29;69.66;100213.55;126284;1099;104312;-78
2021/09/20 01:28:02;;;;;;;3.47;2.30;;;;;;;10.31;69.62;100205.73;126267;1098;104401;-79
2021/09/20 01:30:34;;;;;;;3.97;2.50;;;;;;;10.32;69.48;100199.66;126338;1099;104227;-80
2021/09/20 01:33:05;;;;;;;3.47;2.50;;;;;;;10.32;70.07;100202.28;126338;1099;104159;-79
2021/09/20 01:35:36;;;;;;;4.43;2.53;;;;;;;10.32;70.25;100202.28;126360;1099;104572;-79
2021/09/20 01:38:08;;;;;;;4.17;2.77;;;;;;;10.29;69.57;100192.57;126248;1099;104209;-78
2021/09/20 01:40:38;;;;;;;5.20;2.70;;;;;;;10.29;69.70;100196.94;126353;1099;104293;-79
2021/09/20 01:43:09;;;;;;;10.27;2.80;;;;;;;10.29;69.57;100196.94;126315;1099;104182;-78
2021/09/20 01:45:40;;;;;;;5.00;2.50;;;;;;;10.26;70.34;100203.84;126330;1099;104191;-78
2021/09/20 01:48:12;;;;;;;4.53;2.70;;;;;;;10.25;70.22;100196.84;126317;1099;104256;-79
2021/09/20 01:50:45;;;;;;;4.43;2.73;;;;;;;10.25;69.61;100202.09;126304;1099;104153;-78
2021/09/20 01:53:19;;;;;;;3.90;2.20;;;;;;;10.26;69.69;100202.97;126358;1099;104582;-79
2021/09/20 01:56:05;;;;;;;4.83;2.70;;;;;;;10.27;69.75;100199.52;126299;1099;104281;-79
2021/09/20 01:58:36;;;;;;;5.20;2.77;;;;;;;10.30;70.37;100204.86;126314;1096;104185;-80
2021/09/20 02:01:07;;;;;;;3.37;2.40;;;;;;;10.33;70.28;100206.70;126323;1099;104280;-78
2021/09/20 02:03:38;;;;;;;2.83;2.53;;;;;;;10.34;69.87;100205.87;126310;1099;104185;-79
2021/09/20 02:06:09;;;;;;;4.40;2.43;;;;;;;10.35;69.75;100202.41;126363;1099;104233;-78
2021/09/20 02:08:39;;;;;;;4.70;2.50;;;;;;;10.36;70.18;100197.22;126284;1098;104153;-79
2021/09/20 02:11:11;;;;;;;3.53;2.80;;;;;;;10.37;69.85;100196.35;126331;1099;104185;-80
2021/09/20 02:13:41;;;;;;;4.17;2.63;;;;;;;10.39;70.40;100204.27;126385;1098;104175;-79
2021/09/20 02:16:12;;;;;;;4.33;2.60;;;;;;;10.40;70.30;100198.20;126329;1099;104315;-79
2021/09/20 02:18:43;;;;;;;5.83;2.70;;;;;;;10.40;70.08;100196.45;126301;1099;104293;-79
2021/09/20 02:21:15;;;;;;;4.77;2.77;;;;;;;10.40;69.85;100191.20;126345;1099;104299;-79
2021/09/20 02:23:46;;;;;;;2.90;2.60;;;;;;;10.43;69.92;100188.67;126336;1098;104248;-79
2021/09/20 02:26:17;;;;;;;6.37;2.80;;;;;;;10.45;70.29;100182.60;126377;1099;104182;-80
2021/09/20 02:28:48;;;;;;;5.97;2.80;;;;;;;10.46;69.84;100189.64;126268;1099;104304;-79
2021/09/20 02:31:19;;;;;;;4.20;2.97;;;;;;;10.47;69.88;100186.15;126353;1099;104140;-80
2021/09/20 02:33:50;;;;;;;4.80;2.93;;;;;;;10.51;70.00;100186.30;126366;1099;104152;-79
2021/09/20 02:36:22;;;;;;;4.37;2.57;;;;;;;10.55;69.97;100184.64;126334;1099;104156;-80
2021/09/20 02:38:53;;;;;;;4.37;2.67;;;;;;;10.59;70.53;100187.41;126291;1099;104140;-79
2021/09/20 02:41:24;;;;;;;3.57;2.57;;;;;;;10.63;70.57;100188.42;126316;1099;104133;-80
2021/09/20 02:43:56;;;;;;;3.50;2.70;;;;;;;10.66;69.97;100182.35;126358;1099;104178;-79
2021/09/20 02:46:30;;;;;;;4.57;2.90;;;;;;;10.66;70.36;100180.64;126271;1099;104227;-80
2021/09/20 02:49:03;;;;;;;4.00;2.90;;;;;;;10.68;70.38;100181.56;126291;1099;104133;-80
2021/09/20 02:51:39;;;;;;;4.20;2.87;;;;;;;10.68;70.31;100181.56;126353;1099;104156;-78
2021/09/20 02:54:13;;;;;;;7.13;2.83;;;;;;;10.69;70.12;100178.11;126278;1099;104201;-78
2021/09/20 02:56:46;;;;;;;4.17;2.70;;;;;;;10.71;69.85;100180.78;126318;1099;104570;-79
2021/09/20 02:59:17;;;;;;;4.20;3.00;;;;;;;10.73;70.14;100179.95;126276;1099;104719;-78
2021/09/20 03:01:51;;;;;;;4.47;2.90;;;;;;;10.74;69.89;100184.38;126289;1098;104160;-78
2021/09/20 03:04:24;;;;;;;5.75;3.40;;;;;;;10.71;70.24;100184.28;126342;1099;104162;-80
2021/09/20 03:06:59;;;;;;;4.27;3.23;;;;;;;10.71;69.90;100192.16;126322;1098;104136;-79
2021/09/20 03:09:35;;;;;;;4.40;2.80;;;;;;;10.67;70.19;100190.27;126323;1099;104220;-79
2021/09/20 03:12:09;;;;;;;4.50;2.65;;;;;;;10.63;70.13;100182.25;126332;1098;104149;-79
2021/09/20 03:14:43;;;;;;;7.03;3.10;;;;;;;10.57;69.99;100190.85;126331;1098;104140;-78
2021/09/20 03:17:13;;;;;;;3.13;2.53;;;;;;;10.52;69.85;100181.96;126364;1099;104287;-79
2021/09/20 03:19:46;;;;;;;5.70;3.40;;;;;;;10.46;70.30;100181.77;126253;1099;104581;-79
2021/09/20 03:22:18;;;;;;;6.70;3.13;;;;;;;10.47;70.47;100178.28;126370;1099;104157;-79
2021/09/20 03:24:53;;;;;;;6.35;3.37;;;;;;;10.44;70.68;100189.59;126308;1099;104136;-78
2021/09/20 03:27:25;;;;;;;;;;;;;;;10.35;70.18;100182.31;126398;1099;104631;-78
2021/09/20 03:29:57;;;;;;;4.77;3.03;;;;;;;10.31;70.44;100190.00;126315;1099;104172;-79
2021/09/20 03:32:30;;;;;;;7.67;3.33;;;;;;;10.24;70.66;100188.92;126297;1099;104143;-78
2021/09/20 03:35:00;;;;;;;5.70;3.00;;;;;;;10.17;71.05;100193.05;126341;1098;104229;-78
2021/09/20 03:37:31;;;;;;;5.53;3.10;;;;;;;10.12;70.98;100191.15;126338;1099;104140;-79
2021/09/20 03:40:02;;;;;;;5.30;3.17;;;;;;;10.04;70.73;100191.78;126312;1099;104197;-80
2021/09/20 03:42:33;;;;;;;6.70;3.43;;;;;;;9.98;70.72;100188.95;126318;1099;104262;-80
2021/09/20 03:45:04;;;;;;;7.83;3.50;;;;;;;9.90;70.92;100191.31;126311;1099;104270;-79
2021/09/20 03:47:35;;;;;;;5.75;3.20;;;;;;;9.87;71.30;100187.71;126315;1099;104149;-79
2021/09/20 03:50:08;;;;;;;4.37;3.27;;;;;;;9.89;71.60;100189.55;126246;1099;104379;-80
2021/09/20 03:52:41;;;;;;;6.17;3.35;;;;;;;9.92;70.88;100190.48;126343;1099;104265;-80
2021/09/20 03:55:13;;;;;;;6.50;3.43;;;;;;;9.96;71.67;100190.64;126333;1099;104255;-80
2021/09/20 03:57:44;;;;;;;7.77;3.23;;;;;;;10.00;71.50;100189.91;126267;1099;104328;-80
2021/09/20 04:00:16;;;;;;;6.80;3.50;;;;;;;10.03;71.71;100200.47;126254;1099;105572;-80
2021/09/20 04:02:46;;;;;;;6.53;3.47;;;;;;;10.07;71.17;100197.12;126261;1099;111924;-81
2021/09/20 04:05:17;;;;;;;8.93;3.70;;;;;;;10.13;71.20;100203.39;126131;1099;104152;-79
2021/09/20 04:07:48;;;;;;;10.73;3.93;;;;;;;10.17;71.14;100207.91;126214;1099;104181;-78
2021/09/20 04:10:28;;;;;;;12.60;4.10;;;;;;;10.24;71.31;100207.28;126262;1099;104137;-80
2021/09/20 04:13:01;;;;;;;7.23;3.37;;;;;;;10.25;71.32;100211.66;126292;1099;104146;-79
2021/09/20 04:15:32;;;;;;;12.75;3.67;;;;;;;10.26;71.35;100209.09;126174;1099;104201;-80
2021/09/20 04:18:03;;;;;;;9.57;3.23;;;;;;;10.27;71.90;100210.00;126285;1099;104188;-80
2021/09/20 04:20:34;;;;;;;8.47;3.40;;;;;;;10.25;71.49;100211.66;126107;1099;104341;-79
2021/09/20 04:23:04;;;;;;;11.63;3.70;;;;;;;10.24;72.28;100207.28;126252;1099;104181;-80
2021/09/20 04:25:35;;;;;;;6.00;3.40;;;;;;;10.23;71.83;100213.35;126306;1099;104136;-79
2021/09/20 04:28:06;;;;;;;7.70;3.47;;;;;;;10.25;71.99;100211.66;126269;1099;104174;-79
2021/09/20 04:30:37;;;;;;;7.07;3.43;;;;;;;10.27;71.78;100207.38;126271;1099;104669;-79
2021/09/20 04:33:08;;;;;;;7.00;3.70;;;;;;;10.30;72.08;100220.59;125987;1099;104348;-79
2021/09/20 04:35:38;;;;;;;8.73;3.50;;;;;;;10.33;71.88;100215.48;126079;1099;104309;-78
2021/09/20 04:38:11;;;;;;;7.53;3.97;;;;;;;10.37;72.09;100216.45;126211;1099;104204;-79
2021/09/20 04:40:43;;;;;;;11.80;4.00;;;;;;;10.40;72.36;100232.30;126147;1099;104261;-79
2021/09/20 04:43:14;;;;;;;9.40;3.73;;;;;;;10.43;72.50;100224.52;126058;1099;104174;-79
2021/09/20 04:45:45;;;;;;;7.27;3.60;;;;;;;10.47;72.39;100233.37;126081;1099;104139;-78
2021/09/20 04:48:16;;;;;;;8.70;3.87;;;;;;;10.50;72.03;100229.13;126103;1099;104249;-78
2021/09/20 04:50:49;;;;;;;8.43;4.07;;;;;;;10.55;72.08;100231.87;126122;1097;104182;-79
2021/09/20 04:53:19;;;;;;;7.37;3.57;;;;;;;10.65;72.30;100238.31;126026;1099;104172;-79
2021/09/20 04:55:50;;;;;;;7.00;3.83;;;;;;;10.73;71.97;100239.44;126277;1099;104153;-81
2021/09/20 04:58:21;;;;;;;7.27;3.33;;;;;;;10.82;71.97;100241.47;126482;1099;104246;-81
2021/09/20 05:00:52;;;;;;;7.60;3.60;;;;;;;10.88;72.03;100242.53;126267;1099;104162;-80
2021/09/20 05:03:32;;;;;;;8.30;3.67;;;;;;;10.95;71.75;100243.59;126174;1099;104149;-80
2021/09/20 05:06:20;;;;;;;6.67;3.20;;;;;;;11.02;71.99;100244.70;126501;1099;102373;-80
2021/09/20 05:08:51;;;;;;;6.93;3.10;;;;;;;11.07;72.39;100249.22;126458;1099;101866;-80
2021/09/20 05:11:23;;;;;;;6.23;3.50;;;;;;;11.11;71.68;100248.47;126196;1099;104229;-79
2021/09/20 05:14:03;;;;;;;7.43;3.30;;;;;;;11.17;71.98;100257.37;125341;1099;104405;-80
2021/09/20 05:16:34;;;;;;;5.70;3.70;;;;;;;11.23;71.99;100265.43;125245;1099;104959;-79
2021/09/20 05:19:08;;;;;;;6.97;3.17;;;;;;;11.27;71.77;100264.69;125236;1099;104513;-79
2021/09/20 05:21:43;;;;;;;7.17;3.30;;;;;;;11.31;71.99;100261.28;125309;1099;104265;-79
2021/09/20 05:24:13;;;;;;;4.05;3.10;;;;;;;11.34;71.94;100261.36;125119;1099;104259;-78
2021/09/20 05:26:44;;;;;;;6.17;3.10;;;;;;;11.35;71.50;100260.53;125223;1099;104341;-79
2021/09/20 05:29:15;;;;;;;4.83;3.20;;;;;;;11.36;71.72;100257.06;125119;1099;104144;-80
2021/09/20 05:31:46;;;;;;;5.40;3.10;;;;;;;11.38;71.86;100255.37;125176;1099;104354;-78
2021/09/20 05:34:18;;;;;;;10.93;3.73;;;;;;;11.41;71.54;100263.33;125145;1099;104291;-80
2021/09/20 05:36:49;;;;;;;6.30;3.33;;;;;;;11.42;71.52;100265.13;125190;1099;104229;-79
2021/09/20 05:39:20;;;;;;;4.83;3.07;;;;;;;11.43;71.09;100264.26;125134;1102;104286;-77
2021/09/20 05:41:55;;;;;;;6.40;3.03;;;;;;;11.46;71.43;100269.60;126075;1099;104156;-79
2021/09/20 05:44:27;;;;;;;4.70;2.70;;;;;;;11.50;71.37;100267.97;126083;1099;104290;-79
2021/09/20 05:47:01;;;;;;;8.57;3.27;;;;;;;11.56;71.24;100272.48;126050;1099;104243;-78
2021/09/20 05:49:35;;;;;;;9.50;3.33;;;;;;;11.59;71.33;100267.32;125966;1099;104181;-79
2021/09/20 05:52:10;;;;;;;6.43;3.47;;;;;;;11.63;71.04;100277.08;126008;1099;104267;-77
2021/09/20 05:54:48;;;;;;;2.83;2.50;;;;;;;11.67;71.05;100278.92;125816;1099;104240;-79
2021/09/20 05:57:40;;;;;;;5.00;2.90;;;;;;;11.72;71.12;100282.59;125963;1099;104197;-79
2021/09/20 06:00:18;;;;;;;7.90;2.93;;;;;;;11.77;71.26;100285.34;125110;1102;104146;-79
2021/09/20 06:02:58;;;;;;;7.80;2.63;;;;;;;11.85;71.13;100281.18;125003;1102;104424;-80
2021/09/20 06:05:42;;;;;;;5.83;2.97;;;;;;;11.92;70.76;100285.80;124870;1102;108129;-80
2021/09/20 06:08:21;;;;;;;4.10;2.53;;;;;;;11.96;71.09;100287.64;124951;1105;104143;-79
2021/09/20 06:11:15;;;;;;;6.83;3.00;;;;;;;12.01;70.79;100293.94;124980;1102;104274;-79
2021/09/20 06:13:55;;;;;;;7.33;3.17;;;;;;;12.08;70.88;100283.58;124999;1105;104364;-80
2021/09/20 06:16:30;;;;;;;5.80;3.20;;;;;;;12.16;70.69;100287.29;124965;1102;104236;-78
2021/09/20 06:19:06;;;;;;;6.47;3.20;;;;;;;12.20;70.76;100292.67;125112;1102;104232;-80
2021/09/20 06:21:46;;;;;;;7.37;3.23;;;;;;;12.28;70.24;100292.86;125017;1102;104350;-79
2021/09/20 06:24:22;;;;;;;4.67;3.00;;;;;;;12.33;70.50;100296.49;124983;1102;104476;-81
2021/09/20 06:27:02;;;;;;;5.60;2.60;;;;;;;12.38;70.37;100294.86;125057;1102;104351;-80
2021/09/20 06:29:38;;;;;;;4.87;2.80;;;;;;;12.43;70.06;100300.23;124901;1103;104287;-79
2021/09/20 06:32:14;;;;;;;6.53;2.90;;;;;;;12.46;69.82;100299.43;125743;1099;105714;-79
2021/09/20 06:34:47;;;;;;;3.80;2.60;;;;;;;12.44;69.30;100302.03;126060;1098;104176;-78
2021/09/20 06:37:22;;;;;;;6.50;2.50;;;;;;;12.42;69.11;100311.63;126122;1099;104408;-77
2021/09/20 06:39:53;;;;;;;;;;;;;;;12.40;69.35;100308.97;125291;1099;104211;-78
2021/09/20 06:42:29;;;;;;;8.90;2.83;;;;;;;12.43;69.31;100316.02;125965;1099;104389;-79
2021/09/20 06:45:03;;;;;;;7.17;3.07;;;;;;;12.50;69.16;100311.83;125869;1099;104278;-79
2021/09/20 06:47:37;;;;;;;5.80;2.90;;;;;;;12.59;69.14;100304.16;125826;1099;104140;-77
2021/09/20 06:50:12;;;;;;;4.87;2.97;;;;;;;12.65;68.81;100317.44;125981;1099;104201;-77
2021/09/20 06:52:45;;;;;;;7.05;2.95;;;;;;;12.69;68.87;100316.67;126168;1099;104192;-78
2021/09/20 06:55:19;;;;;;;8.70;2.70;;;;;;;12.72;68.43;100319.38;125982;1099;104194;-78
2021/09/20 06:57:59;;;;;;;7.17;2.63;;;;;;;12.77;68.60;100316.86;126103;1099;104296;-79
2021/09/20 07:00:33;;;;;;;6.17;2.90;;;;;;;12.80;67.89;100311.66;126084;1099;104205;-78
2021/09/20 07:03:12;;;;;;;6.90;2.60;;;;;;;12.82;67.29;100319.59;126110;1099;104181;-77
2021/09/20 07:05:47;;;;;;;7.70;2.57;;;;;;;12.82;67.48;100319.59;125988;1099;104147;-77
2021/09/20 07:08:20;;;;;;;6.90;2.80;;;;;;;12.88;67.78;100319.74;126117;1099;104232;-77
2021/09/20 07:10:56;;;;;;;8.30;2.87;;;;;;;12.92;67.67;100317.22;126131;1099;104414;-77
2021/09/20 07:13:31;;;;;;;6.50;2.73;;;;;;;12.94;67.52;100320.77;126118;1098;104227;-78
2021/09/20 07:16:03;;;;;;;8.60;3.10;;;;;;;12.91;66.51;100320.69;125906;1099;104271;-77
2021/09/20 07:18:40;;;;;;;10.37;3.20;;;;;;;12.94;66.50;100317.25;125922;1099;104143;-79
2021/09/20 07:21:13;;;;;;;6.67;3.20;;;;;;;12.99;67.08;100320.00;125751;1098;104207;-78
2021/09/20 07:23:46;;;;;;;8.93;2.80;;;;;;;13.04;67.00;100328.87;125125;1099;104300;-77
2021/09/20 07:26:20;;;;;;;11.93;2.50;;;;;;;13.04;65.83;100342.96;125964;1099;104152;-78
2021/09/20 07:28:55;;;;;;;9.45;2.90;;;;;;;13.02;66.34;100327.97;126053;1099;104165;-79
2021/09/20 07:31:31;;;;;;;5.67;2.60;;;;;;;13.03;66.10;100324.49;126076;1099;104143;-79
2021/09/20 07:34:06;;;;;;;5.00;2.40;;;;;;;13.07;66.25;100324.59;126104;1099;104165;-79
2021/09/20 07:36:38;;;;;;;8.00;2.73;;;;;;;13.11;65.91;100326.42;126199;1099;104177;-77
2021/09/20 07:39:11;;;;;;;4.83;2.87;;;;;;;13.16;65.94;100328.28;126147;1099;104192;-77
2021/09/20 07:41:46;;;;;;;6.80;2.50;;;;;;;13.21;65.64;100327.51;125961;1099;104589;-78
2021/09/20 07:44:21;;;;;;;5.47;2.50;;;;;;;13.20;65.83;100319.56;125989;1099;104150;-78
2021/09/20 07:46:57;;;;;;;5.80;2.60;;;;;;;13.17;65.59;100316.90;126064;1099;104261;-78
2021/09/20 07:49:42;;;;;;;4.27;2.57;;;;;;;13.15;65.26;100314.23;126149;1099;104248;-78
2021/09/20 07:52:16;;;;;;;6.07;2.63;;;;;;;13.13;65.05;100319.47;126332;1099;104176;-77
2021/09/20 07:54:49;;;;;;;4.60;2.80;;;;;;;13.14;65.11;100307.17;126312;1099;104251;-78
2021/09/20 07:57:25;;;;;;;4.62;2.67;;;;;;;13.20;65.34;100306.40;126213;1099;104245;-78
2021/09/20 08:00:14;;;;;;;6.17;2.87;;;;;;;13.27;65.50;100298.66;126250;1099;104300;-78
2021/09/20 08:02:49;;;;;;;7.33;3.43;;;;;;;13.31;65.10;100297.87;126287;1099;104336;-78
2021/09/20 08:05:24;;;;;;;6.33;2.98;;;;;;;13.36;65.28;100297.13;126117;1099;104120;-78
2021/09/20 08:07:59;;;;;;;8.03;3.13;;;;;;;13.40;64.66;100299.87;126317;1099;111967;-79
2021/09/20 08:10:33;;;;;;;4.67;2.70;;;;;;;13.53;64.58;100300.12;126223;1099;104670;-79
2021/09/20 08:13:10;;;;;;;6.17;2.50;;;;;;;13.72;63.97;100290.83;126197;1099;104334;-81
2021/09/20 08:15:44;;;;;;;8.20;2.63;;;;;;;13.91;63.12;100290.30;126220;1099;104253;-79
2021/09/20 08:18:17;;;;;;;3.23;2.43;;;;;;;14.08;63.43;100295.02;126330;1098;104660;-78
2021/09/20 08:20:49;;;;;;;3.90;2.40;;;;;;;14.19;61.62;100304.91;126099;1099;104265;-78
2021/09/20 08:23:23;;;;;;;4.43;2.30;;;;;;;14.30;61.94;100294.52;126314;1099;105824;-78
2021/09/20 08:25:54;;;;;;;6.90;2.50;;;;;;;14.41;61.57;100309.66;126143;1099;104134;-77
2021/09/20 08:28:27;;;;;;;5.67;2.60;;;;;;;14.53;61.13;100318.66;126160;1099;104268;-77
2021/09/20 08:31:08;;;;;;;2.77;2.40;;;;;;;14.64;61.25;100316.23;126167;1099;104146;-79
2021/09/20 08:33:40;;;;;;;3.70;2.60;;;;;;;14.76;60.76;100318.20;126234;1099;102016;-77
2021/09/20 08:36:15;;;;;;;5.47;2.60;;;;;;;14.84;62.09;100308.63;126309;1099;104312;-77
2021/09/20 08:38:47;;;;;;;3.80;2.50;;;;;;;14.95;61.39;100318.48;126322;1099;118909;-78
2021/09/20 08:41:19;;;;;;;6.30;2.80;;;;;;;15.00;59.47;100330.00;126105;1099;104341;-79
2021/09/20 08:43:51;;;;;;;;;;;;;;;14.95;59.35;100314.08;126221;1099;101703;-79
2021/09/20 08:46:26;;;;;;;3.23;2.60;;;;;;;15.00;60.27;100315.02;126198;1099;104166;-78
2021/09/20 08:49:00;;;;;;;3.65;2.55;;;;;;;15.11;60.58;100312.53;126331;1099;104147;-79
2021/09/20 08:51:32;;;;;;;3.98;2.72;;;;;;;15.20;60.10;100323.23;126268;1099;104217;-79
2021/09/20 08:54:06;;;;;;;5.37;2.50;;;;;;;15.24;59.50;100314.50;126240;1099;104141;-77
2021/09/20 08:56:38;;;;;;;2.63;2.43;;;;;;;15.30;59.10;100304.86;126319;1099;104229;-79
2021/09/20 08:59:11;;;;;;;4.15;2.40;;;;;;;15.25;58.70;100300.42;126013;1099;104333;-78
2021/09/20 09:01:47;;;;;;;4.70;2.50;;;;;;;15.31;57.64;100310.17;126137;1099;104156;-80
2021/09/20 09:04:32;;;;;;;3.93;2.40;;;;;;;15.34;58.24;100307.56;126172;1099;104375;-77
2021/09/20 09:07:03;;;;;;;;;;;;;;;15.36;57.31;100310.23;126165;1099;104197;-79
2021/09/20 09:09:38;;;;;;;4.33;2.20;;;;;;;15.44;57.60;100312.12;125402;1099;104299;-79
2021/09/20 09:12:20;;;;;;;3.10;2.33;;;;;;;15.56;58.56;100306.08;125257;1099;104294;-78
2021/09/20 09:14:58;;;;;;;8.05;3.00;;;;;;;15.60;57.46;100307.02;125167;1099;104181;-78
2021/09/20 09:17:32;;;;;;;4.97;2.70;;;;;;;15.66;58.13;100308.83;125405;1099;104274;-79
2021/09/20 09:20:10;;;;;;;4.75;2.40;;;;;;;15.74;56.15;100304.55;125242;1102;104271;-80
2021/09/20 09:22:49;;;;;;;5.03;2.47;;;;;;;15.76;56.90;100303.67;125126;1099;104288;-77
2021/09/20 09:25:27;;;;;;;2.50;2.10;;;;;;;15.87;56.99;100293.24;125307;1099;104271;-78
2021/09/20 09:28:20;;;;;;;2.97;2.50;;;;;;;15.94;55.96;100302.13;125437;1099;104140;-78
2021/09/20 09:30:57;;;;;;;2.90;2.30;;;;;;;16.04;56.47;100306.66;126142;1099;104242;-78
2021/09/20 09:33:39;;;;;;;3.50;2.50;;;;;;;16.16;56.92;100292.66;126043;1099;104623;-78
2021/09/20 09:36:14;;;;;;;2.50;2.30;;;;;;;16.32;56.34;100291.04;126091;1099;104366;-79
2021/09/20 09:38:59;;;;;;;2.97;2.30;;;;;;;16.40;56.33;100288.46;125580;1099;104172;-79
2021/09/20 09:41:49;;;;;;;3.10;2.23;;;;;;;16.38;55.76;100304.33;125253;1102;104190;-79
2021/09/20 09:44:31;;;;;;;3.07;2.27;;;;;;;16.31;54.78;100299.84;125232;1099;104338;-80
2021/09/20 09:47:29;;;;;;;4.37;2.40;;;;;;;16.01;54.62;100311.03;125175;1099;104159;-79
2021/09/20 09:50:17;;;;;;;4.27;2.30;;;;;;;15.93;54.51;100308.31;126019;1099;104288;-81
2021/09/20 09:52:53;;;;;;;2.57;2.30;;;;;;;15.98;54.67;100303.94;126056;1099;104133;-79
2021/09/20 09:55:32;;;;;;;3.40;2.30;;;;;;;16.21;55.76;100311.24;126266;1097;104171;-79
2021/09/20 09:58:15;;;;;;;2.93;2.20;;;;;;;16.19;54.07;100311.23;126049;1098;104355;-78
2021/09/20 10:01:10;;;;;;;3.47;2.33;;;;;;;16.11;54.14;100312.89;126138;1099;107760;-80
2021/09/20 10:04:09;;;;;;;2.70;2.00;;;;;;;16.13;54.31;100301.45;126167;1099;104169;-79
2021/09/20 10:06:55;;;;;;;4.17;2.30;;;;;;;16.25;54.02;100310.38;126177;1099;102933;-79
2021/09/20 10:09:29;;;;;;;2.40;2.20;;;;;;;16.34;53.36;100303.40;125470;1098;104300;-78
2021/09/20 10:12:06;;;;;;;7.40;2.70;;;;;;;16.40;53.84;100291.11;125958;1099;104277;-78
2021/09/20 10:14:40;;;;;;;13.07;2.77;;;;;;;16.54;53.46;100298.27;125702;1099;104505;-78
2021/09/20 10:17:18;;;;;;;2.90;2.20;;;;;;;16.70;53.59;100308.99;125772;1099;104333;-79
2021/09/20 10:19:54;;;;;;;3.67;2.20;;;;;;;16.73;54.22;100310.79;125407;1099;104245;-80
2021/09/20 10:22:29;;;;;;;3.23;2.17;;;;;;;16.80;53.64;100300.25;125071;1102;104414;-79
2021/09/20 10:25:03;;;;;;;7.50;2.43;;;;;;;16.77;52.98;100305.53;125105;1100;104179;-78
2021/09/20 10:27:35;;;;;;;10.43;2.50;;;;;;;16.67;52.83;100311.62;125357;1099;104341;-79
2021/09/20 10:30:12;;;;;;;4.27;2.07;;;;;;;16.58;53.34;100315.10;126044;1099;104143;-79
2021/09/20 10:32:56;;;;;;;6.87;2.70;;;;;;;16.51;53.58;100308.84;125992;1099;104162;-78
2021/09/20 10:35:31;;;;;;;8.27;2.43;;;;;;;16.44;53.71;100316.72;125874;1099;104322;-78
2021/09/20 10:38:29;;;;;;;3.30;2.20;;;;;;;16.32;53.49;100309.58;126151;1099;104143;-78
2021/09/20 10:41:13;;;;;;;9.50;2.40;;;;;;;16.26;53.43;100317.45;126115;1099;104168;-78
2021/09/20 10:43:45;;;;;;;;;;;;;;;16.22;51.92;100310.34;126179;1099;104201;-77
2021/09/20 10:46:28;;;;;;;9.90;2.60;;;;;;;16.32;51.98;100317.52;126144;1099;104143;-77
2021/09/20 10:49:18;;;;;;;10.90;3.40;;;;;;;16.31;51.85;100310.44;126130;1099;102333;-78
2021/09/20 10:52:09;;;;;;;3.00;2.10;;;;;;;16.37;51.55;100318.44;126118;1099;118458;-78
2021/09/20 10:54:41;;;;;;;6.20;2.40;;;;;;;16.47;52.35;100306.16;126180;1099;104262;-78
2021/09/20 10:57:16;;;;;;;4.17;2.20;;;;;;;16.47;51.33;100312.36;126275;1097;104240;-76
2021/09/20 10:59:50;;;;;;;2.60;2.10;;;;;;;16.48;51.13;100297.34;126235;1097;104185;-76
2021/09/20 11:02:32;;;;;;;4.13;2.13;;;;;;;16.58;51.00;100303.59;126241;1099;104166;-79
2021/09/20 11:05:12;;;;;;;4.85;1.90;;;;;;;16.69;51.62;100304.59;126236;1099;104605;-78
2021/09/20 11:07:50;;;;;;;1.93;1.83;;;;;;;16.74;50.98;100292.25;126233;1099;104284;-79
2021/09/20 11:10:31;;;;;;;3.77;1.97;;;;;;;16.71;50.56;100281.64;126097;1099;104274;-78
2021/09/20 11:13:30;;;;;;;2.30;2.10;;;;;;;16.54;50.66;100290.33;126213;1099;102100;-79
2021/09/20 11:16:36;;;;;;;5.97;2.50;;;;;;;16.60;50.09;100280.68;126095;1099;104165;-81
2021/09/20 11:19:48;;;;;;;4.63;2.37;;;;;;;16.67;51.40;100270.14;126043;1099;104236;-81
2021/09/20 11:22:29;;;;;;;5.97;2.30;;;;;;;16.80;50.56;100273.75;126023;1099;104195;-79
2021/09/20 11:25:06;;;;;;;4.00;2.30;;;;;;;16.85;50.69;100264.06;126053;1099;104258;-79
2021/09/20 11:27:43;;;;;;;4.57;2.10;;;;;;;16.94;50.52;100270.31;126057;1099;104293;-80
2021/09/20 11:30:24;;;;;;;7.53;2.73;;;;;;;17.00;50.11;100265.05;126233;1099;104155;-78
2021/09/20 11:33:00;;;;;;;2.63;2.20;;;;;;;17.02;49.96;100272.14;126235;1099;118023;-78
2021/09/20 11:35:35;;;;;;;5.83;2.53;;;;;;;17.07;49.32;100275.70;126116;1099;104415;-79
2021/09/20 11:38:13;;;;;;;7.27;2.40;;;;;;;17.14;49.80;100270.43;126227;1099;104162;-79
2021/09/20 11:40:48;;;;;;;3.03;2.10;;;;;;;17.17;49.20;100273.09;126226;1099;104172;-78
2021/09/20 11:43:22;;;;;;;3.33;1.87;;;;;;;17.10;48.69;100266.89;126219;1099;104223;-79
2021/09/20 11:45:58;;;;;;;2.07;1.93;;;;;;;17.08;48.26;100263.35;126251;1099;104142;-79